sensor_id;sensor_type;location;lat;lon;timestamp;temperature;humidity
17998;DHT22;9124;48.144;17.098;2024-03-06T00:01:35;6.20;99.90
17998;DHT22;9124;48.144;17.098;2024-03-06T00:06:04;6.20;99.90
17998;DHT22;9124;48.144;17.098;2024-03-06T00:10:30;6.20;99.90
17998;DHT22;9124;48.144;17.098;2024-03-06T00:14:58;6.20;99.90
17998;DHT22;9124;48.144;17.098;2024-03-06T00:19:24;6.20;99.90
17998;DHT22;9124;48.144;17.098;2024-03-06T00:23:51;6.20;99.90
17998;DHT22;9124;48.144;17.098;2024-03-06T00:28:17;6.20;99.90
17998;DHT22;9124;48.144;17.098;2024-03-06T00:32:44;6.20;99.90
17998;DHT22;9124;48.144;17.098;2024-03-06T00:37:10;6.20;99.90
17998;DHT22;9124;48.144;17.098;2024-03-06T00:41:37;6.20;99.90
17998;DHT22;9124;48.144;17.098;2024-03-06T00:46:03;6.20;99.90
17998;DHT22;9124;48.144;17.098;2024-03-06T00:50:31;6.10;99.90
17998;DHT22;9124;48.144;17.098;2024-03-06T00:54:58;6.10;99.90
17998;DHT22;9124;48.144;17.098;2024-03-06T00:59:26;6.10;99.90
17998;DHT22;9124;48.144;17.098;2024-03-06T01:03:52;6.10;99.90
17998;DHT22;9124;48.144;17.098;2024-03-06T01:08:22;6.00;99.90
17998;DHT22;9124;48.144;17.098;2024-03-06T01:12:51;6.00;99.90
17998;DHT22;9124;48.144;17.098;2024-03-06T01:21:45;5.90;99.90
17998;DHT22;9124;48.144;17.098;2024-03-06T01:26:11;5.80;99.90
17998;DHT22;9124;48.144;17.098;2024-03-06T01:30:38;5.80;99.90
17998;DHT22;9124;48.144;17.098;2024-03-06T01:35:05;5.70;99.90
17998;DHT22;9124;48.144;17.098;2024-03-06T01:39:33;5.60;99.90
17998;DHT22;9124;48.144;17.098;2024-03-06T01:44:01;5.60;99.90
17998;DHT22;9124;48.144;17.098;2024-03-06T01:48:31;5.50;99.90
17998;DHT22;9124;48.144;17.098;2024-03-06T01:52:57;5.40;99.90
17998;DHT22;9124;48.144;17.098;2024-03-06T02:02:43;5.30;99.90
17998;DHT22;9124;48.144;17.098;2024-03-06T02:07:10;5.20;99.90
17998;DHT22;9124;48.144;17.098;2024-03-06T02:12:02;5.20;99.90
17998;DHT22;9124;48.144;17.098;2024-03-06T02:16:29;5.10;99.90
17998;DHT22;9124;48.144;17.098;2024-03-06T02:20:58;5.10;99.90
17998;DHT22;9124;48.144;17.098;2024-03-06T02:25:24;5.00;99.90
17998;DHT22;9124;48.144;17.098;2024-03-06T02:29:50;5.00;99.90
17998;DHT22;9124;48.144;17.098;2024-03-06T02:34:16;5.00;99.90
17998;DHT22;9124;48.144;17.098;2024-03-06T02:38:46;5.00;99.90
17998;DHT22;9124;48.144;17.098;2024-03-06T02:43:12;4.90;99.90
17998;DHT22;9124;48.144;17.098;2024-03-06T02:47:41;4.90;99.90
17998;DHT22;9124;48.144;17.098;2024-03-06T02:52:07;4.80;99.90
17998;DHT22;9124;48.144;17.098;2024-03-06T02:56:34;4.80;99.90
17998;DHT22;9124;48.144;17.098;2024-03-06T03:01:00;4.80;99.90
17998;DHT22;9124;48.144;17.098;2024-03-06T03:05:27;4.80;99.90
17998;DHT22;9124;48.144;17.098;2024-03-06T03:09:53;4.80;99.90
17998;DHT22;9124;48.144;17.098;2024-03-06T03:14:20;4.80;99.90
17998;DHT22;9124;48.144;17.098;2024-03-06T03:18:46;4.80;99.90
17998;DHT22;9124;48.144;17.098;2024-03-06T03:23:14;4.70;99.90
17998;DHT22;9124;48.144;17.098;2024-03-06T03:27:41;4.70;99.90
17998;DHT22;9124;48.144;17.098;2024-03-06T03:32:10;4.60;99.90
17998;DHT22;9124;48.144;17.098;2024-03-06T03:36:42;4.50;99.90
17998;DHT22;9124;48.144;17.098;2024-03-06T03:41:12;4.50;99.90
17998;DHT22;9124;48.144;17.098;2024-03-06T03:45:38;4.50;99.90
17998;DHT22;9124;48.144;17.098;2024-03-06T03:50:06;4.40;99.90
17998;DHT22;9124;48.144;17.098;2024-03-06T03:54:34;4.40;99.90
17998;DHT22;9124;48.144;17.098;2024-03-06T03:59:03;4.40;99.90
17998;DHT22;9124;48.144;17.098;2024-03-06T04:03:30;4.30;99.90
17998;DHT22;9124;48.144;17.098;2024-03-06T04:07:57;4.30;99.90
17998;DHT22;9124;48.144;17.098;2024-03-06T04:12:23;4.40;99.90
17998;DHT22;9124;48.144;17.098;2024-03-06T04:16:50;4.30;99.90
17998;DHT22;9124;48.144;17.098;2024-03-06T04:21:17;4.30;99.90
17998;DHT22;9124;48.144;17.098;2024-03-06T04:25:44;4.30;99.90
17998;DHT22;9124;48.144;17.098;2024-03-06T04:30:13;4.30;99.90
17998;DHT22;9124;48.144;17.098;2024-03-06T04:34:39;4.30;99.90
17998;DHT22;9124;48.144;17.098;2024-03-06T04:39:07;4.30;99.90
17998;DHT22;9124;48.144;17.098;2024-03-06T04:43:33;4.20;99.90
17998;DHT22;9124;48.144;17.098;2024-03-06T04:48:01;4.30;99.90
17998;DHT22;9124;48.144;17.098;2024-03-06T04:52:27;4.20;99.90
17998;DHT22;9124;48.144;17.098;2024-03-06T04:56:56;4.20;99.90
17998;DHT22;9124;48.144;17.098;2024-03-06T05:01:22;4.20;99.90
17998;DHT22;9124;48.144;17.098;2024-03-06T05:05:49;4.20;99.90
17998;DHT22;9124;48.144;17.098;2024-03-06T05:10:15;4.20;99.90
17998;DHT22;9124;48.144;17.098;2024-03-06T05:14:42;4.20;99.90
17998;DHT22;9124;48.144;17.098;2024-03-06T05:19:09;4.20;99.90
17998;DHT22;9124;48.144;17.098;2024-03-06T05:23:37;4.30;99.90
17998;DHT22;9124;48.144;17.098;2024-03-06T05:28:04;4.30;99.90
17998;DHT22;9124;48.144;17.098;2024-03-06T05:32:31;4.30;99.90
17998;DHT22;9124;48.144;17.098;2024-03-06T05:41:24;4.30;99.90
17998;DHT22;9124;48.144;17.098;2024-03-06T05:45:50;4.40;99.90
17998;DHT22;9124;48.144;17.098;2024-03-06T05:50:16;4.50;99.90
17998;DHT22;9124;48.144;17.098;2024-03-06T05:54:45;4.60;99.90
17998;DHT22;9124;48.144;17.098;2024-03-06T05:59:11;4.60;99.90
17998;DHT22;9124;48.144;17.098;2024-03-06T06:03:39;4.70;99.90
17998;DHT22;9124;48.144;17.098;2024-03-06T06:08:05;4.80;99.90
17998;DHT22;9124;48.144;17.098;2024-03-06T06:12:31;4.80;99.90
17998;DHT22;9124;48.144;17.098;2024-03-06T06:16:58;4.90;99.90
17998;DHT22;9124;48.144;17.098;2024-03-06T06:21:24;5.10;99.90
17998;DHT22;9124;48.144;17.098;2024-03-06T06:25:51;5.30;99.90
17998;DHT22;9124;48.144;17.098;2024-03-06T06:30:19;5.50;99.90
17998;DHT22;9124;48.144;17.098;2024-03-06T06:34:45;5.70;99.90
17998;DHT22;9124;48.144;17.098;2024-03-06T06:39:12;5.90;99.90
17998;DHT22;9124;48.144;17.098;2024-03-06T06:43:38;6.20;99.90
17998;DHT22;9124;48.144;17.098;2024-03-06T06:48:07;7.30;99.90
17998;DHT22;9124;48.144;17.098;2024-03-06T06:57:02;10.90;99.90
17998;DHT22;9124;48.144;17.098;2024-03-06T07:01:29;10.70;99.90
17998;DHT22;9124;48.144;17.098;2024-03-06T07:05:58;9.80;99.90
17998;DHT22;9124;48.144;17.098;2024-03-06T07:10:24;9.00;99.90
17998;DHT22;9124;48.144;17.098;2024-03-06T07:14:52;8.60;99.90
17998;DHT22;9124;48.144;17.098;2024-03-06T07:19:18;8.20;99.90
17998;DHT22;9124;48.144;17.098;2024-03-06T07:23:44;7.80;99.90
17998;DHT22;9124;48.144;17.098;2024-03-06T07:28:11;7.50;99.90
17998;DHT22;9124;48.144;17.098;2024-03-06T07:32:37;7.30;99.90
17998;DHT22;9124;48.144;17.098;2024-03-06T07:37:04;7.20;99.90
17998;DHT22;9124;48.144;17.098;2024-03-06T07:41:31;7.20;99.90
17998;DHT22;9124;48.144;17.098;2024-03-06T07:46:00;7.20;99.90
17998;DHT22;9124;48.144;17.098;2024-03-06T07:50:26;7.20;99.90
17998;DHT22;9124;48.144;17.098;2024-03-06T07:54:53;7.30;99.90
17998;DHT22;9124;48.144;17.098;2024-03-06T07:59:20;7.40;99.90
17998;DHT22;9124;48.144;17.098;2024-03-06T08:03:47;7.60;99.90
17998;DHT22;9124;48.144;17.098;2024-03-06T08:08:13;7.90;99.90
17998;DHT22;9124;48.144;17.098;2024-03-06T08:12:41;8.20;99.90
17998;DHT22;9124;48.144;17.098;2024-03-06T08:17:08;8.70;99.90
17998;DHT22;9124;48.144;17.098;2024-03-06T08:21:35;14.10;99.90
17998;DHT22;9124;48.144;17.098;2024-03-06T08:26:02;19.50;97.30
17998;DHT22;9124;48.144;17.098;2024-03-06T08:30:29;22.60;83.00
17998;DHT22;9124;48.144;17.098;2024-03-06T08:34:58;24.00;74.10
17998;DHT22;9124;48.144;17.098;2024-03-06T08:39:26;25.10;67.60
17998;DHT22;9124;48.144;17.098;2024-03-06T08:43:52;26.10;63.40
17998;DHT22;9124;48.144;17.098;2024-03-06T08:48:19;26.60;59.80
17998;DHT22;9124;48.144;17.098;2024-03-06T08:52:45;27.40;56.90
17998;DHT22;9124;48.144;17.098;2024-03-06T08:57:14;28.00;55.50
17998;DHT22;9124;48.144;17.098;2024-03-06T09:01:40;28.00;52.60
17998;DHT22;9124;48.144;17.098;2024-03-06T09:10:34;28.90;49.30
17998;DHT22;9124;48.144;17.098;2024-03-06T09:15:04;29.20;48.20
17998;DHT22;9124;48.144;17.098;2024-03-06T09:19:33;29.60;46.20
17998;DHT22;9124;48.144;17.098;2024-03-06T09:24:00;29.70;45.00
17998;DHT22;9124;48.144;17.098;2024-03-06T09:28:26;29.70;43.70
17998;DHT22;9124;48.144;17.098;2024-03-06T09:32:52;29.60;42.60
17998;DHT22;9124;48.144;17.098;2024-03-06T09:37:20;29.20;41.70
17998;DHT22;9124;48.144;17.098;2024-03-06T09:41:46;28.50;41.00
17998;DHT22;9124;48.144;17.098;2024-03-06T09:46:17;29.10;41.00
17998;DHT22;9124;48.144;17.098;2024-03-06T09:50:43;29.50;39.90
17998;DHT22;9124;48.144;17.098;2024-03-06T09:55:12;29.70;39.10
17998;DHT22;9124;48.144;17.098;2024-03-06T09:59:41;29.40;38.40
17998;DHT22;9124;48.144;17.098;2024-03-06T10:04:23;29.20;38.30
17998;DHT22;9124;48.144;17.098;2024-03-06T10:08:52;29.40;37.70
17998;DHT22;9124;48.144;17.098;2024-03-06T10:13:25;30.10;38.20
17998;DHT22;9124;48.144;17.098;2024-03-06T10:17:51;30.30;37.00
17998;DHT22;9124;48.144;17.098;2024-03-06T10:22:19;30.20;37.00
17998;DHT22;9124;48.144;17.098;2024-03-06T10:26:47;29.10;36.00
17998;DHT22;9124;48.144;17.098;2024-03-06T10:31:13;28.70;36.70
17998;DHT22;9124;48.144;17.098;2024-03-06T10:35:42;29.50;36.60
17998;DHT22;9124;48.144;17.098;2024-03-06T10:40:10;30.00;36.70
17998;DHT22;9124;48.144;17.098;2024-03-06T10:44:51;30.50;35.60
17998;DHT22;9124;48.144;17.098;2024-03-06T10:49:19;30.20;35.10
17998;DHT22;9124;48.144;17.098;2024-03-06T10:53:46;29.80;34.90
17998;DHT22;9124;48.144;17.098;2024-03-06T10:58:13;28.50;34.90
17998;DHT22;9124;48.144;17.098;2024-03-06T11:02:39;27.80;35.00
17998;DHT22;9124;48.144;17.098;2024-03-06T11:07:09;27.30;35.10
17998;DHT22;9124;48.144;17.098;2024-03-06T11:11:47;26.90;35.10
17998;DHT22;9124;48.144;17.098;2024-03-06T11:16:17;26.40;34.80
17998;DHT22;9124;48.144;17.098;2024-03-06T11:20:44;25.00;34.80
17998;DHT22;9124;48.144;17.098;2024-03-06T11:30:21;23.30;36.20
17998;DHT22;9124;48.144;17.098;2024-03-06T11:34:50;22.10;36.70
17998;DHT22;9124;48.144;17.098;2024-03-06T11:39:17;20.70;35.60
17998;DHT22;9124;48.144;17.098;2024-03-06T11:43:44;18.10;37.70
17998;DHT22;9124;48.144;17.098;2024-03-06T11:48:14;16.20;40.20
17998;DHT22;9124;48.144;17.098;2024-03-06T11:52:46;15.20;42.00
17998;DHT22;9124;48.144;17.098;2024-03-06T11:57:13;14.40;43.10
17998;DHT22;9124;48.144;17.098;2024-03-06T12:01:43;14.10;44.10
17998;DHT22;9124;48.144;17.098;2024-03-06T12:06:09;13.80;44.90
17998;DHT22;9124;48.144;17.098;2024-03-06T12:10:39;13.60;45.40
17998;DHT22;9124;48.144;17.098;2024-03-06T12:15:05;13.50;46.20
17998;DHT22;9124;48.144;17.098;2024-03-06T12:19:35;13.40;46.80
17998;DHT22;9124;48.144;17.098;2024-03-06T12:24:10;13.40;47.20
17998;DHT22;9124;48.144;17.098;2024-03-06T12:28:38;13.40;47.70
17998;DHT22;9124;48.144;17.098;2024-03-06T12:33:04;13.40;47.80
17998;DHT22;9124;48.144;17.098;2024-03-06T12:37:32;13.30;48.00
17998;DHT22;9124;48.144;17.098;2024-03-06T12:41:58;13.30;48.20
17998;DHT22;9124;48.144;17.098;2024-03-06T12:46:25;13.30;48.70
17998;DHT22;9124;48.144;17.098;2024-03-06T12:50:52;13.30;48.70
17998;DHT22;9124;48.144;17.098;2024-03-06T12:55:20;13.20;49.10
17998;DHT22;9124;48.144;17.098;2024-03-06T12:59:46;13.10;49.30
17998;DHT22;9124;48.144;17.098;2024-03-06T13:04:14;13.00;49.60
17998;DHT22;9124;48.144;17.098;2024-03-06T13:08:40;13.00;50.30
17998;DHT22;9124;48.144;17.098;2024-03-06T13:13:07;12.90;50.10
17998;DHT22;9124;48.144;17.098;2024-03-06T13:17:33;12.80;50.10
17998;DHT22;9124;48.144;17.098;2024-03-06T13:22:01;12.70;50.40
17998;DHT22;9124;48.144;17.098;2024-03-06T13:26:27;12.50;50.60
17998;DHT22;9124;48.144;17.098;2024-03-06T13:30:54;12.50;51.00
17998;DHT22;9124;48.144;17.098;2024-03-06T13:35:20;12.40;51.60
17998;DHT22;9124;48.144;17.098;2024-03-06T13:39:48;12.40;52.10
17998;DHT22;9124;48.144;17.098;2024-03-06T13:44:14;12.30;52.70
17998;DHT22;9124;48.144;17.098;2024-03-06T13:48:41;12.20;53.00
17998;DHT22;9124;48.144;17.098;2024-03-06T13:53:07;12.10;53.40
17998;DHT22;9124;48.144;17.098;2024-03-06T13:57:37;12.00;53.80
17998;DHT22;9124;48.144;17.098;2024-03-06T14:02:03;12.00;54.10
17998;DHT22;9124;48.144;17.098;2024-03-06T14:06:30;11.90;54.50
17998;DHT22;9124;48.144;17.098;2024-03-06T14:10:56;11.80;54.50
17998;DHT22;9124;48.144;17.098;2024-03-06T14:15:25;11.70;54.70
17998;DHT22;9124;48.144;17.098;2024-03-06T14:19:52;11.70;54.90
17998;DHT22;9124;48.144;17.098;2024-03-06T14:24:20;11.60;55.00
17998;DHT22;9124;48.144;17.098;2024-03-06T14:28:47;11.50;55.20
17998;DHT22;9124;48.144;17.098;2024-03-06T14:33:13;11.40;55.40
17998;DHT22;9124;48.144;17.098;2024-03-06T14:37:39;11.30;55.40
17998;DHT22;9124;48.144;17.098;2024-03-06T14:42:06;11.20;55.50
17998;DHT22;9124;48.144;17.098;2024-03-06T14:46:32;11.30;55.70
17998;DHT22;9124;48.144;17.098;2024-03-06T14:50:59;12.20;55.10
17998;DHT22;9124;48.144;17.098;2024-03-06T14:55:25;11.80;54.90
17998;DHT22;9124;48.144;17.098;2024-03-06T14:59:54;11.30;55.20
17998;DHT22;9124;48.144;17.098;2024-03-06T15:04:20;11.50;55.20
17998;DHT22;9124;48.144;17.098;2024-03-06T15:08:46;11.60;55.00
17998;DHT22;9124;48.144;17.098;2024-03-06T15:13:13;11.20;54.70
17998;DHT22;9124;48.144;17.098;2024-03-06T15:17:42;10.80;55.00
17998;DHT22;9124;48.144;17.098;2024-03-06T15:22:10;10.50;55.30
17998;DHT22;9124;48.144;17.098;2024-03-06T15:26:36;10.30;55.50
17998;DHT22;9124;48.144;17.098;2024-03-06T15:31:05;10.20;55.70
17998;DHT22;9124;48.144;17.098;2024-03-06T15:35:31;10.10;56.00
17998;DHT22;9124;48.144;17.098;2024-03-06T15:39:58;9.90;56.10
17998;DHT22;9124;48.144;17.098;2024-03-06T15:44:24;9.80;56.20
17998;DHT22;9124;48.144;17.098;2024-03-06T15:48:51;9.60;56.50
17998;DHT22;9124;48.144;17.098;2024-03-06T15:53:17;9.50;56.70
17998;DHT22;9124;48.144;17.098;2024-03-06T15:57:43;9.30;56.70
17998;DHT22;9124;48.144;17.098;2024-03-06T16:02:10;9.20;57.00
17998;DHT22;9124;48.144;17.098;2024-03-06T16:06:37;9.10;57.20
17998;DHT22;9124;48.144;17.098;2024-03-06T16:11:03;9.00;57.40
17998;DHT22;9124;48.144;17.098;2024-03-06T16:15:30;8.90;57.50
17998;DHT22;9124;48.144;17.098;2024-03-06T16:19:56;8.80;57.80
17998;DHT22;9124;48.144;17.098;2024-03-06T16:24:25;8.80;58.00
17998;DHT22;9124;48.144;17.098;2024-03-06T16:28:51;8.60;58.00
17998;DHT22;9124;48.144;17.098;2024-03-06T16:33:18;8.50;58.40
17998;DHT22;9124;48.144;17.098;2024-03-06T16:37:44;8.50;58.40
17998;DHT22;9124;48.144;17.098;2024-03-06T16:42:13;8.40;58.50
17998;DHT22;9124;48.144;17.098;2024-03-06T16:46:39;8.20;58.70
17998;DHT22;9124;48.144;17.098;2024-03-06T16:51:06;8.10;58.80
17998;DHT22;9124;48.144;17.098;2024-03-06T16:55:33;8.00;58.90
17998;DHT22;9124;48.144;17.098;2024-03-06T17:00:01;7.90;59.00
17998;DHT22;9124;48.144;17.098;2024-03-06T17:04:27;7.80;59.10
17998;DHT22;9124;48.144;17.098;2024-03-06T17:08:54;7.70;59.10
17998;DHT22;9124;48.144;17.098;2024-03-06T17:13:20;7.60;59.10
17998;DHT22;9124;48.144;17.098;2024-03-06T17:17:46;7.50;59.10
17998;DHT22;9124;48.144;17.098;2024-03-06T17:22:13;7.50;59.20
17998;DHT22;9124;48.144;17.098;2024-03-06T17:26:39;7.40;59.40
17998;DHT22;9124;48.144;17.098;2024-03-06T17:31:07;7.30;59.40
17998;DHT22;9124;48.144;17.098;2024-03-06T17:35:33;7.20;59.60
17998;DHT22;9124;48.144;17.098;2024-03-06T17:40:03;7.10;59.70
17998;DHT22;9124;48.144;17.098;2024-03-06T17:44:29;7.00;60.10
17998;DHT22;9124;48.144;17.098;2024-03-06T17:48:56;6.90;60.30
17998;DHT22;9124;48.144;17.098;2024-03-06T17:53:23;6.80;60.70
17998;DHT22;9124;48.144;17.098;2024-03-06T17:57:50;6.80;61.20
17998;DHT22;9124;48.144;17.098;2024-03-06T18:02:16;6.70;61.70
17998;DHT22;9124;48.144;17.098;2024-03-06T18:06:45;6.60;62.10
17998;DHT22;9124;48.144;17.098;2024-03-06T18:11:11;6.50;62.30
17998;DHT22;9124;48.144;17.098;2024-03-06T18:15:38;6.50;62.80
17998;DHT22;9124;48.144;17.098;2024-03-06T18:20:05;6.40;63.50
17998;DHT22;9124;48.144;17.098;2024-03-06T18:24:33;6.30;63.80
17998;DHT22;9124;48.144;17.098;2024-03-06T18:28:59;6.30;64.60
17998;DHT22;9124;48.144;17.098;2024-03-06T18:33:27;6.20;64.90
17998;DHT22;9124;48.144;17.098;2024-03-06T18:37:53;6.10;64.90
17998;DHT22;9124;48.144;17.098;2024-03-06T18:42:19;5.90;64.90
17998;DHT22;9124;48.144;17.098;2024-03-06T18:46:46;5.90;65.10
17998;DHT22;9124;48.144;17.098;2024-03-06T18:51:13;5.80;65.60
17998;DHT22;9124;48.144;17.098;2024-03-06T18:55:39;5.80;65.90
17998;DHT22;9124;48.144;17.098;2024-03-06T19:00:06;5.70;66.30
17998;DHT22;9124;48.144;17.098;2024-03-06T19:04:33;5.60;66.70
17998;DHT22;9124;48.144;17.098;2024-03-06T19:09:05;5.50;67.10
17998;DHT22;9124;48.144;17.098;2024-03-06T19:13:31;5.50;67.30
17998;DHT22;9124;48.144;17.098;2024-03-06T19:17:59;5.40;67.70
17998;DHT22;9124;48.144;17.098;2024-03-06T19:22:25;5.40;68.00
17998;DHT22;9124;48.144;17.098;2024-03-06T19:26:52;5.30;70.20
17998;DHT22;9124;48.144;17.098;2024-03-06T19:31:21;5.30;68.50
17998;DHT22;9124;48.144;17.098;2024-03-06T19:35:47;5.20;68.80
17998;DHT22;9124;48.144;17.098;2024-03-06T19:40:17;5.20;69.10
17998;DHT22;9124;48.144;17.098;2024-03-06T19:44:43;5.10;69.20
17998;DHT22;9124;48.144;17.098;2024-03-06T19:49:13;5.10;69.70
17998;DHT22;9124;48.144;17.098;2024-03-06T19:53:39;5.10;70.00
17998;DHT22;9124;48.144;17.098;2024-03-06T19:58:07;5.00;70.30
17998;DHT22;9124;48.144;17.098;2024-03-06T20:02:34;4.90;70.50
17998;DHT22;9124;48.144;17.098;2024-03-06T20:07:03;4.90;71.00
17998;DHT22;9124;48.144;17.098;2024-03-06T20:11:29;4.90;71.30
17998;DHT22;9124;48.144;17.098;2024-03-06T20:15:58;4.80;71.90
17998;DHT22;9124;48.144;17.098;2024-03-06T20:20:24;4.80;71.90
17998;DHT22;9124;48.144;17.098;2024-03-06T20:24:51;4.70;72.20
17998;DHT22;9124;48.144;17.098;2024-03-06T20:29:17;4.70;72.60
17998;DHT22;9124;48.144;17.098;2024-03-06T20:33:44;4.70;72.90
17998;DHT22;9124;48.144;17.098;2024-03-06T20:38:11;4.60;73.00
17998;DHT22;9124;48.144;17.098;2024-03-06T20:42:39;4.60;73.30
17998;DHT22;9124;48.144;17.098;2024-03-06T20:47:06;4.60;73.50
17998;DHT22;9124;48.144;17.098;2024-03-06T20:51:34;4.60;73.90
17998;DHT22;9124;48.144;17.098;2024-03-06T20:56:01;4.60;74.00
17998;DHT22;9124;48.144;17.098;2024-03-06T21:00:28;4.50;74.30
17998;DHT22;9124;48.144;17.098;2024-03-06T21:04:56;4.50;74.60
17998;DHT22;9124;48.144;17.098;2024-03-06T21:09:24;4.50;74.80
17998;DHT22;9124;48.144;17.098;2024-03-06T21:13:50;4.40;74.90
17998;DHT22;9124;48.144;17.098;2024-03-06T21:18:16;4.50;75.70
17998;DHT22;9124;48.144;17.098;2024-03-06T21:22:43;4.40;75.60
17998;DHT22;9124;48.144;17.098;2024-03-06T21:27:11;4.50;76.10
17998;DHT22;9124;48.144;17.098;2024-03-06T21:31:39;4.50;76.50
17998;DHT22;9124;48.144;17.098;2024-03-06T21:36:05;4.50;76.90
17998;DHT22;9124;48.144;17.098;2024-03-06T21:40:33;4.50;77.00
17998;DHT22;9124;48.144;17.098;2024-03-06T21:44:59;4.50;77.30
17998;DHT22;9124;48.144;17.098;2024-03-06T21:49:26;4.60;77.60
17998;DHT22;9124;48.144;17.098;2024-03-06T21:53:59;4.60;78.10
17998;DHT22;9124;48.144;17.098;2024-03-06T21:58:26;4.70;78.80
17998;DHT22;9124;48.144;17.098;2024-03-06T22:02:53;4.80;79.30
17998;DHT22;9124;48.144;17.098;2024-03-06T22:07:21;4.80;79.70
17998;DHT22;9124;48.144;17.098;2024-03-06T22:11:47;4.90;80.40
17998;DHT22;9124;48.144;17.098;2024-03-06T22:16:17;4.90;80.90
17998;DHT22;9124;48.144;17.098;2024-03-06T22:20:43;5.00;81.80
17998;DHT22;9124;48.144;17.098;2024-03-06T22:25:10;5.00;82.50
17998;DHT22;9124;48.144;17.098;2024-03-06T22:29:36;5.00;83.70
17998;DHT22;9124;48.144;17.098;2024-03-06T22:34:04;5.00;84.50
17998;DHT22;9124;48.144;17.098;2024-03-06T22:38:32;5.00;85.80
17998;DHT22;9124;48.144;17.098;2024-03-06T22:43:01;5.00;87.10
17998;DHT22;9124;48.144;17.098;2024-03-06T22:47:27;4.90;88.60
17998;DHT22;9124;48.144;17.098;2024-03-06T22:51:57;5.00;90.10
17998;DHT22;9124;48.144;17.098;2024-03-06T22:56:23;5.00;91.00
17998;DHT22;9124;48.144;17.098;2024-03-06T23:00:49;5.20;91.90
17998;DHT22;9124;48.144;17.098;2024-03-06T23:05:16;5.40;92.60
17998;DHT22;9124;48.144;17.098;2024-03-06T23:09:46;5.60;93.20
17998;DHT22;9124;48.144;17.098;2024-03-06T23:14:13;5.70;93.70
17998;DHT22;9124;48.144;17.098;2024-03-06T23:18:40;5.80;94.20
17998;DHT22;9124;48.144;17.098;2024-03-06T23:23:07;5.90;94.80
17998;DHT22;9124;48.144;17.098;2024-03-06T23:27:34;6.00;95.40
17998;DHT22;9124;48.144;17.098;2024-03-06T23:32:00;6.00;95.90
17998;DHT22;9124;48.144;17.098;2024-03-06T23:36:26;6.10;96.40
17998;DHT22;9124;48.144;17.098;2024-03-06T23:40:54;6.10;96.80
17998;DHT22;9124;48.144;17.098;2024-03-06T23:45:20;6.10;97.30
17998;DHT22;9124;48.144;17.098;2024-03-06T23:49:47;6.20;97.80
17998;DHT22;9124;48.144;17.098;2024-03-06T23:54:13;6.20;98.40
17998;DHT22;9124;48.144;17.098;2024-03-06T23:58:41;6.20;98.80
